Time;durP1;ratioP1;P1;durP2;ratioP2;P2;SDS_P1;SDS_P2;PMS_P1;PMS_P2;Temp;Humidity;BMP_temperature;BMP_pressure;BME280_temperature;BME280_humidity;BME280_pressure;Samples;Min_cycle;Max_cycle;Signal;HPM_P1;HPM_P2
2021/10/24 00:00:07;;;;;;;1999.90;999.90;;;;;;;11.55;100.00;99771.53;5095030;28;20028;-34
2021/10/24 00:02:32;;;;;;;1999.90;999.90;;;;;;;11.38;100.00;99767.09;5095054;28;20032;-34
2021/10/24 00:04:59;;;;;;;1999.90;999.90;;;;;;;11.35;100.00;99764.91;5095049;28;20020;-34
2021/10/24 00:07:25;;;;;;;1999.90;999.90;;;;;;;11.32;100.00;99772.59;5095003;28;20118;-34
2021/10/24 00:09:50;;;;;;;1999.90;999.90;;;;;;;11.28;100.00;99774.16;5095629;28;20020;-34
2021/10/24 00:12:18;;;;;;;1999.90;999.90;;;;;;;11.24;100.00;99786.38;5094825;28;20066;-34
2021/10/24 00:14:44;;;;;;;1999.90;999.90;;;;;;;11.21;100.00;99780.44;5094796;28;20016;-34
2021/10/24 00:17:10;;;;;;;1999.90;999.90;;;;;;;11.17;100.00;99791.84;5094839;28;20016;-34
2021/10/24 00:19:36;;;;;;;1999.90;999.90;;;;;;;11.17;100.00;99797.19;5094716;28;20399;-33
2021/10/24 00:22:04;;;;;;;1999.90;999.90;;;;;;;11.13;100.00;99799.56;5094657;28;20024;-34
2021/10/24 00:24:30;;;;;;;1999.90;999.90;;;;;;;11.08;100.00;99801.34;5094669;28;20032;-34
2021/10/24 00:26:55;;;;;;;1999.90;999.90;;;;;;;11.00;100.00;99799.91;5094649;28;20020;-34
2021/10/24 00:29:21;;;;;;;1999.90;999.90;;;;;;;10.97;100.00;99801.19;5094591;28;20085;-34
2021/10/24 00:31:46;;;;;;;1999.90;999.90;;;;;;;10.94;100.00;99793.69;5094425;28;20026;-33
2021/10/24 00:34:12;;;;;;;1999.90;999.90;;;;;;;10.94;100.00;99795.50;5094761;28;20110;-34
2021/10/24 00:36:38;;;;;;;1999.90;999.90;;;;;;;10.88;100.00;99797.31;5094488;28;20479;-34
2021/10/24 00:39:04;;;;;;;1999.90;999.90;;;;;;;10.87;100.00;99790.38;5094347;28;20111;-34
2021/10/24 00:41:31;;;;;;;1999.90;999.90;;;;;;;10.93;100.00;99786.72;5094339;28;20073;-34
2021/10/24 00:43:58;;;;;;;1999.90;999.90;;;;;;;10.84;100.00;99791.66;5094303;28;20491;-34
2021/10/24 00:46:24;;;;;;;1999.90;999.90;;;;;;;10.83;100.00;99782.03;5094216;28;20100;-34
2021/10/24 00:48:50;;;;;;;1999.90;999.90;;;;;;;10.88;100.00;99788.50;5094325;28;20136;-33
2021/10/24 00:51:17;;;;;;;1999.90;999.90;;;;;;;10.86;100.00;99796.75;5094375;28;20024;-33
2021/10/24 00:53:43;;;;;;;1999.90;999.90;;;;;;;10.85;100.00;99798.59;5093877;28;20127;-34
2021/10/24 00:56:09;;;;;;;1999.90;999.90;;;;;;;10.78;100.00;99795.28;5094368;28;20116;-34
2021/10/24 00:58:37;;;;;;;1999.90;999.90;;;;;;;10.67;100.00;99774.84;5094000;28;20032;-33
2021/10/24 01:01:03;;;;;;;1999.90;999.90;;;;;;;10.66;100.00;99781.25;5093894;28;20491;-34
2021/10/24 01:03:28;;;;;;;1999.90;999.90;;;;;;;10.61;100.00;99781.94;5094216;28;20039;-33
2021/10/24 01:05:59;;;;;;;1999.90;999.90;;;;;;;10.55;100.00;99774.94;5093838;28;20024;-34
2021/10/24 01:08:24;;;;;;;1999.90;999.90;;;;;;;10.48;100.00;99784.94;5093825;28;20032;-34
2021/10/24 01:10:50;;;;;;;1999.90;999.90;;;;;;;10.48;100.00;99782.28;5093907;28;20044;-34
2021/10/24 01:13:16;;;;;;;1999.90;999.90;;;;;;;10.44;100.00;99784.63;5093699;28;20028;-34
2021/10/24 01:15:41;;;;;;;1999.90;999.90;;;;;;;10.37;100.00;99788.50;5093625;28;20054;-33
2021/10/24 01:18:09;;;;;;;1999.90;999.90;;;;;;;10.31;100.00;99803.53;5093958;28;20027;-34
2021/10/24 01:20:36;;;;;;;1999.90;999.90;;;;;;;10.24;100.00;99806.34;5093584;28;20024;-34
2021/10/24 01:23:01;;;;;;;;;;;;;;;10.26;100.00;99787.47;5093871;28;20024;-34
2021/10/24 01:25:27;;;;;;;1999.90;999.90;;;;;;;10.14;100.00;99796.34;5093787;28;19912;-34
2021/10/24 01:27:53;;;;;;;1999.90;999.90;;;;;;;10.17;100.00;99789.69;5094227;28;20403;-34
2021/10/24 01:30:20;;;;;;;1999.90;999.90;;;;;;;10.18;100.00;99799.31;5093318;28;20020;-35
2021/10/24 01:32:46;;;;;;;1999.90;999.90;;;;;;;10.12;100.00;99802.94;5093539;28;20107;-34
2021/10/24 01:35:12;;;;;;;;;;;;;;;10.14;100.00;99814.16;5094004;28;20024;-34
2021/10/24 01:37:43;;;;;;;1999.90;999.90;;;;;;;10.09;100.00;99833.50;5093293;28;20303;-34
2021/10/24 01:40:15;;;;;;;1999.90;999.90;;;;;;;10.07;100.00;99829.44;5093191;28;20047;-34
2021/10/24 01:42:55;;;;;;;1999.90;999.90;;;;;;;10.10;100.00;99852.94;5093103;28;20035;-34
2021/10/24 01:45:23;;;;;;;1999.90;999.90;;;;;;;10.12;100.00;99862.31;5093370;28;20557;-34
2021/10/24 01:47:50;;;;;;;1999.90;999.90;;;;;;;10.13;100.00;99866.59;5093038;28;20507;-34
2021/10/24 01:50:16;;;;;;;1999.90;999.90;;;;;;;10.19;100.00;99875.50;5093324;28;20174;-34
2021/10/24 01:52:44;;;;;;;1999.90;999.90;;;;;;;10.19;100.00;99880.84;5092733;28;20080;-35
2021/10/24 01:55:12;;;;;;;1999.90;999.90;;;;;;;10.19;100.00;99891.47;5092906;28;20028;-34
2021/10/24 01:57:42;;;;;;;1999.90;999.90;;;;;;;10.21;100.00;99901.91;5092483;28;20024;-33
2021/10/24 02:00:08;;;;;;;1999.90;999.90;;;;;;;10.13;100.00;99905.72;5092864;28;20047;-33
2021/10/24 02:02:34;;;;;;;;;;;;;;;10.06;100.00;99915.72;5093154;28;20024;-33
2021/10/24 02:05:00;;;;;;;1999.90;999.90;;;;;;;10.02;100.00;99928.66;5092859;28;19927;-33
2021/10/24 02:07:26;;;;;;;1999.90;999.90;;;;;;;9.93;100.00;99925.56;5092756;28;20024;-33
2021/10/24 02:09:52;;;;;;;1999.90;999.90;;;;;;;9.94;100.00;99939.66;5092681;28;20049;-33
2021/10/24 02:12:17;;;;;;;1999.90;999.90;;;;;;;9.77;100.00;99935.06;5091227;28;20020;-34
2021/10/24 02:14:43;;;;;;;1999.90;999.90;;;;;;;9.78;100.00;99946.53;5092608;28;20020;-33
2021/10/24 02:17:09;;;;;;;1999.90;999.90;;;;;;;9.80;100.00;99953.22;5092530;28;20020;-33
2021/10/24 02:19:34;;;;;;;1999.90;999.90;;;;;;;9.76;100.00;99945.94;5092519;28;20024;-34
2021/10/24 02:22:02;;;;;;;1999.90;999.90;;;;;;;9.77;100.00;99948.38;5092690;28;20024;-34
2021/10/24 02:24:28;;;;;;;1999.90;999.90;;;;;;;9.73;100.00;99957.06;5092400;28;20483;-34
2021/10/24 02:26:53;;;;;;;1999.90;999.90;;;;;;;9.70;100.00;99965.50;5092367;28;20111;-34
2021/10/24 02:29:19;;;;;;;1999.90;999.90;;;;;;;9.66;100.00;99964.34;5092358;28;20024;-34
2021/10/24 02:31:45;;;;;;;1999.90;999.90;;;;;;;9.69;100.00;99967.38;5092159;28;20023;-34
2021/10/24 02:34:10;;;;;;;1999.90;999.90;;;;;;;9.62;100.00;99977.31;5092312;28;20153;-34
2021/10/24 02:36:36;;;;;;;1999.90;999.90;;;;;;;9.58;100.00;99981.47;5092207;28;20019;-34
2021/10/24 02:39:04;;;;;;;1999.90;999.90;;;;;;;9.59;100.00;99983.91;5092554;28;20032;-34
2021/10/24 02:41:29;;;;;;;1999.90;999.90;;;;;;;9.62;100.00;99990.63;5092486;28;20028;-34
2021/10/24 02:43:55;;;;;;;1999.90;999.90;;;;;;;9.56;100.00;99995.00;5092048;28;20476;-34
2021/10/24 02:46:21;;;;;;;1999.90;999.90;;;;;;;9.50;100.00;100000.41;5092456;28;20024;-34
2021/10/24 02:48:46;;;;;;;1999.90;999.90;;;;;;;9.54;100.00;99991.75;5092116;28;20479;-34
2021/10/24 02:51:12;;;;;;;1999.90;999.90;;;;;;;9.45;100.00;99995.78;5092328;28;20028;-34
2021/10/24 02:53:38;;;;;;;1999.90;999.90;;;;;;;9.49;100.00;99994.28;5091711;28;20044;-34
2021/10/24 02:56:04;;;;;;;1999.90;999.90;;;;;;;9.53;100.00;99998.13;5092563;28;20031;-34
2021/10/24 02:58:30;;;;;;;1999.90;999.90;;;;;;;9.53;100.00;99997.28;5091909;28;20048;-34
2021/10/24 03:00:55;;;;;;;1999.90;999.90;;;;;;;9.54;100.00;100004.25;5091981;28;20055;-34
2021/10/24 03:03:21;;;;;;;1999.90;999.90;;;;;;;9.54;100.00;100005.03;5091823;28;20028;-34
2021/10/24 03:05:48;;;;;;;1999.90;999.90;;;;;;;9.46;100.00;100005.41;5091920;28;20567;-33
2021/10/24 03:08:13;;;;;;;;;;;;;;;9.56;100.00;100010.16;5092388;28;20035;-34
2021/10/24 03:10:39;;;;;;;1999.90;999.90;;;;;;;9.56;100.00;100002.19;5095698;28;19912;-34
2021/10/24 03:13:05;;;;;;;1999.90;999.90;;;;;;;9.57;100.00;99999.28;5096236;28;20028;-34
2021/10/24 03:15:31;;;;;;;1999.90;999.90;;;;;;;9.55;100.00;100001.34;5096000;28;20028;-34
2021/10/24 03:17:56;;;;;;;1999.90;999.90;;;;;;;9.53;100.00;99995.47;5095958;28;20024;-34
2021/10/24 03:20:22;;;;;;;1999.90;999.90;;;;;;;9.49;100.00;100002.28;5096201;28;20093;-34
2021/10/24 03:22:47;;;;;;;1999.90;999.90;;;;;;;9.54;100.00;100010.34;5096084;28;20399;-34
2021/10/24 03:25:13;;;;;;;1999.90;999.90;;;;;;;9.60;100.00;100017.44;5096126;28;20031;-34
2021/10/24 03:27:39;;;;;;;1999.90;999.90;;;;;;;9.63;100.00;100017.00;5095780;28;20541;-34
2021/10/24 03:30:05;;;;;;;1999.90;999.90;;;;;;;9.66;100.00;100017.56;5095980;28;20056;-34
2021/10/24 03:32:31;;;;;;;1999.90;999.90;;;;;;;9.64;100.00;100023.13;5095522;28;20525;-35
2021/10/24 03:34:56;;;;;;;1999.90;999.90;;;;;;;9.71;100.00;100025.69;5095648;28;20053;-34
2021/10/24 03:37:22;;;;;;;1999.90;999.90;;;;;;;9.77;100.00;100033.53;5095919;28;20028;-34
2021/10/24 03:39:48;;;;;;;1999.90;999.90;;;;;;;9.81;100.00;100036.56;5095510;28;20491;-34
2021/10/24 03:42:14;;;;;;;1999.90;999.90;;;;;;;9.78;100.00;100043.16;5095488;28;20028;-34
2021/10/24 03:44:39;;;;;;;1999.90;999.90;;;;;;;9.70;100.00;100040.00;5095427;28;20078;-33
2021/10/24 03:47:05;;;;;;;1999.90;999.90;;;;;;;9.75;100.00;100037.50;5095462;28;20035;-34
2021/10/24 03:49:31;;;;;;;1999.90;999.90;;;;;;;9.78;100.00;100051.13;5095357;28;20028;-34
2021/10/24 03:51:57;;;;;;;1999.90;999.90;;;;;;;9.73;100.00;100052.84;5095175;28;20265;-33
2021/10/24 03:54:23;;;;;;;1999.90;999.90;;;;;;;9.66;100.00;100055.66;5095132;28;20043;-34
2021/10/24 03:56:49;;;;;;;1999.90;999.90;;;;;;;9.64;100.00;100052.38;5094774;28;20028;-34
2021/10/24 03:59:14;;;;;;;1999.90;999.90;;;;;;;9.60;100.00;100046.72;5095191;28;20028;-33
2021/10/24 04:01:40;;;;;;;1999.90;999.90;;;;;;;9.62;100.00;100049.16;5095044;28;20028;-34
2021/10/24 04:04:06;;;;;;;1999.90;999.90;;;;;;;9.62;100.00;100055.28;5094978;28;20030;-34
2021/10/24 04:06:32;;;;;;;1999.90;999.90;;;;;;;9.59;100.00;100052.28;5095415;28;20056;-34
2021/10/24 04:08:58;;;;;;;1999.90;999.90;;;;;;;9.58;100.00;100048.78;5094966;28;20507;-34
2021/10/24 04:11:23;;;;;;;1999.90;999.90;;;;;;;9.57;100.00;100052.50;5095018;28;20111;-34
2021/10/24 04:13:49;;;;;;;1999.90;999.90;;;;;;;9.54;100.00;100052.13;5094803;28;20028;-34
2021/10/24 04:16:15;;;;;;;1999.90;999.90;;;;;;;9.57;100.00;100057.00;5095174;28;20034;-34
2021/10/24 04:18:40;;;;;;;1999.90;999.90;;;;;;;9.63;100.00;100058.72;5094803;28;20499;-34
2021/10/24 04:21:06;;;;;;;1999.90;999.90;;;;;;;9.66;100.00;100065.47;5093942;28;20024;-33
2021/10/24 04:23:31;;;;;;;1999.90;999.90;;;;;;;9.63;100.00;100062.22;5095245;28;20039;-34
2021/10/24 04:25:58;;;;;;;1999.90;999.90;;;;;;;9.62;100.00;100049.16;5094711;28;20020;-34
2021/10/24 04:28:23;;;;;;;1999.90;999.90;;;;;;;9.59;100.00;100053.06;5094572;28;20483;-34
2021/10/24 04:30:49;;;;;;;1999.90;999.90;;;;;;;9.63;100.00;100059.56;5095307;28;20027;-34
2021/10/24 04:33:15;;;;;;;1999.90;999.90;;;;;;;9.61;100.00;100066.94;5094375;28;20032;-34
2021/10/24 04:35:41;;;;;;;1999.90;999.90;;;;;;;9.59;100.00;100076.22;5095535;28;20044;-34
2021/10/24 04:38:07;;;;;;;1999.90;999.90;;;;;;;9.61;100.00;100085.56;5094761;28;20024;-34
2021/10/24 04:40:33;;;;;;;1999.90;999.90;;;;;;;9.63;100.00;100088.84;5094350;28;20479;-34
2021/10/24 04:42:58;;;;;;;1999.90;999.90;;;;;;;9.72;100.00;100089.31;5094448;28;20040;-34
2021/10/24 04:45:24;;;;;;;1999.90;999.90;;;;;;;9.67;100.00;100094.50;5094207;28;20027;-34
2021/10/24 04:47:50;;;;;;;1999.90;999.90;;;;;;;9.75;100.00;100106.69;5094141;28;20032;-34
2021/10/24 04:50:15;;;;;;;1999.90;999.90;;;;;;;9.74;100.00;100099.72;5094614;28;20035;-34
2021/10/24 04:52:41;;;;;;;1999.90;999.90;;;;;;;9.82;100.00;100102.03;5094095;28;20419;-34
2021/10/24 04:55:07;;;;;;;1999.90;999.90;;;;;;;9.80;100.00;100107.59;5094385;28;20032;-34
2021/10/24 04:57:33;;;;;;;1999.90;999.90;;;;;;;9.77;100.00;100129.34;5094080;28;20507;-34
2021/10/24 04:59:59;;;;;;;1999.90;999.90;;;;;;;9.78;100.00;100120.34;5093963;28;20039;-34
2021/10/24 05:02:25;;;;;;;1999.90;999.90;;;;;;;9.80;100.00;100117.44;5094007;28;20028;-34
2021/10/24 05:04:51;;;;;;;1999.90;999.90;;;;;;;9.79;100.00;100118.47;5093894;28;20052;-34
2021/10/24 05:07:16;;;;;;;1999.90;999.90;;;;;;;9.72;100.00;100105.28;5093862;28;20020;-34
2021/10/24 05:09:42;;;;;;;1999.90;999.90;;;;;;;9.79;100.00;100103.34;5094134;28;20077;-34
2021/10/24 05:12:08;;;;;;;1999.90;999.90;;;;;;;9.84;100.00;100118.63;5093820;28;20388;-33
2021/10/24 05:14:34;;;;;;;1999.90;999.90;;;;;;;9.86;100.00;100121.06;5093551;28;20059;-34
2021/10/24 05:17:00;;;;;;;1999.90;999.90;;;;;;;9.80;100.00;100117.44;5093670;28;20483;-34
2021/10/24 05:19:25;;;;;;;1999.90;999.90;;;;;;;9.83;100.00;100129.50;5093607;28;20046;-34
2021/10/24 05:21:51;;;;;;;1999.90;999.90;;;;;;;9.87;100.00;100130.66;5093575;28;20024;-34
2021/10/24 05:24:17;;;;;;;1999.90;999.90;;;;;;;9.73;100.00;100138.03;5093463;28;20036;-34
2021/10/24 05:26:44;;;;;;;1999.90;999.90;;;;;;;9.75;100.00;100144.75;5093454;28;20063;-34
2021/10/24 05:29:10;;;;;;;1999.90;999.90;;;;;;;9.73;100.00;100154.00;5093337;28;20032;-34
2021/10/24 05:31:35;;;;;;;1999.90;999.90;;;;;;;9.68;100.00;100159.19;5093281;28;20024;-34
2021/10/24 05:34:01;;;;;;;1999.90;999.90;;;;;;;9.62;100.00;100159.03;5092169;28;20088;-34
2021/10/24 05:36:27;;;;;;;1999.90;999.90;;;;;;;9.71;100.00;100164.06;5093332;28;20084;-34
2021/10/24 05:38:53;;;;;;;1999.90;999.90;;;;;;;9.66;100.00;100158.59;5093252;28;20042;-34
2021/10/24 05:41:18;;;;;;;1999.90;999.90;;;;;;;9.64;100.00;100167.59;5093184;28;20028;-33
2021/10/24 05:43:44;;;;;;;1999.90;999.90;;;;;;;9.64;100.00;100172.13;5093469;28;20050;-34
2021/10/24 05:46:10;;;;;;;1999.90;999.90;;;;;;;9.67;100.00;100179.66;5093381;28;20024;-34
2021/10/24 05:48:36;;;;;;;1999.90;999.90;;;;;;;9.61;100.00;100185.88;5093073;28;20024;-34
2021/10/24 05:51:02;;;;;;;1999.90;999.90;;;;;;;9.44;100.00;100201.63;5093368;28;20070;-34
2021/10/24 05:53:27;;;;;;;1999.90;999.90;;;;;;;9.48;100.00;100188.72;5092756;28;20070;-34
2021/10/24 05:55:53;;;;;;;1999.90;999.90;;;;;;;9.51;100.00;100213.00;5093128;28;20039;-34
2021/10/24 05:58:19;;;;;;;1999.90;999.90;;;;;;;9.54;100.00;100222.41;5093059;28;20544;-34
2021/10/24 06:00:44;;;;;;;1999.90;999.90;;;;;;;9.44;100.00;100217.59;5092862;28;20465;-34
2021/10/24 06:03:10;;;;;;;1999.90;999.90;;;;;;;9.52;100.00;100217.31;5092739;28;20056;-34
2021/10/24 06:05:36;;;;;;;1999.90;999.90;;;;;;;9.43;100.00;100219.47;5092984;28;20035;-33
2021/10/24 06:08:03;;;;;;;1999.90;999.90;;;;;;;9.48;100.00;100233.94;5092718;28;20034;-33
2021/10/24 06:10:36;;;;;;;1999.90;999.90;;;;;;;9.51;100.00;100231.63;5092624;28;20491;-34
2021/10/24 06:13:02;;;;;;;1999.90;999.90;;;;;;;9.56;100.00;100234.47;5092568;28;20089;-34
2021/10/24 06:15:27;;;;;;;1999.90;999.90;;;;;;;9.61;100.00;100241.75;5091236;28;20032;-34
2021/10/24 06:17:53;;;;;;;1999.90;999.90;;;;;;;9.68;100.00;100249.69;5092493;28;20032;-34
2021/10/24 06:20:21;;;;;;;1999.90;999.90;;;;;;;9.67;100.00;100238.19;5092510;28;20027;-34
2021/10/24 06:22:47;;;;;;;1999.90;999.90;;;;;;;9.66;100.00;100233.09;5092773;28;20032;-34
2021/10/24 06:25:15;;;;;;;1999.90;999.90;;;;;;;9.72;100.00;100230.38;5092345;28;20035;-33
2021/10/24 06:27:42;;;;;;;1999.90;999.90;;;;;;;9.73;100.00;100237.28;5092238;28;20043;-34
2021/10/24 06:30:10;;;;;;;1999.90;999.90;;;;;;;9.68;100.00;100253.13;5092121;28;20028;-34
2021/10/24 06:32:36;;;;;;;1999.90;999.90;;;;;;;9.79;100.00;100248.91;5092570;28;20032;-34
2021/10/24 06:35:03;;;;;;;;;;;;;;;9.78;100.00;100255.28;5092798;28;20027;-34
2021/10/24 06:37:29;;;;;;;1999.90;999.90;;;;;;;9.78;100.00;100266.72;5092189;28;19951;-34
2021/10/24 06:39:55;;;;;;;1999.90;999.90;;;;;;;9.81;100.00;100265.47;5092230;28;20047;-33
2021/10/24 06:42:21;;;;;;;1999.90;999.90;;;;;;;9.74;100.00;100270.88;5092209;28;20031;-34
2021/10/24 06:44:46;;;;;;;1999.90;999.90;;;;;;;9.66;100.00;100267.69;5092079;28;20036;-33
2021/10/24 06:47:43;;;;;;;1999.90;999.90;;;;;;;9.59;100.00;100271.25;5090911;28;20461;-33
2021/10/24 06:50:40;;;;;;;1999.90;999.90;;;;;;;9.59;100.00;100275.78;5091795;28;20101;-33
2021/10/24 06:53:38;;;;;;;1999.90;999.90;;;;;;;9.59;100.00;100276.56;5089515;28;20054;-33
2021/10/24 06:56:29;;;;;;;1999.90;999.90;;;;;;;9.59;100.00;100273.91;5092101;28;20073;-34
2021/10/24 06:58:55;;;;;;;1999.90;999.90;;;;;;;9.63;100.00;100263.63;5092259;28;20032;-33
2021/10/24 07:01:20;;;;;;;1999.90;999.90;;;;;;;9.61;100.00;100271.84;5091884;28;20465;-34
2021/10/24 07:03:46;;;;;;;1999.90;999.90;;;;;;;9.69;100.00;100291.19;5092199;28;20055;-34
2021/10/24 07:06:39;;;;;;;1999.90;999.90;;;;;;;9.69;100.00;100286.72;5091880;28;20055;-33
2021/10/24 07:09:05;;;;;;;1999.90;999.90;;;;;;;9.76;100.00;100283.94;5091823;28;20028;-34
2021/10/24 07:11:30;;;;;;;1999.90;999.90;;;;;;;9.80;100.00;100296.59;5091784;28;20037;-34
2021/10/24 07:13:56;;;;;;;1999.90;999.90;;;;;;;9.81;100.00;100302.75;5091784;28;20032;-34
2021/10/24 07:16:22;;;;;;;1999.90;999.90;;;;;;;9.94;100.00;100302.56;5091696;28;20024;-34
2021/10/24 07:18:47;;;;;;;1999.90;999.90;;;;;;;9.92;100.00;100296.63;5091711;28;20036;-34
2021/10/24 07:21:13;;;;;;;1999.90;999.90;;;;;;;9.83;100.00;100300.66;5092117;28;20024;-34
2021/10/24 07:23:39;;;;;;;1999.90;999.90;;;;;;;9.88;100.00;100307.97;5091730;28;20063;-34
2021/10/24 07:26:04;;;;;;;1999.90;999.90;;;;;;;10.12;100.00;100311.56;5091972;28;20107;-34
2021/10/24 07:28:30;;;;;;;1999.90;999.90;;;;;;;10.50;100.00;100305.91;5091955;28;20459;-34
2021/10/24 07:30:56;;;;;;;1999.90;999.90;;;;;;;10.76;100.00;100305.72;5091666;28;20408;-34
2021/10/24 07:33:22;;;;;;;1999.90;999.90;;;;;;;11.08;100.00;100298.19;5091443;28;20039;-34
2021/10/24 07:35:47;;;;;;;1999.90;999.90;;;;;;;11.28;100.00;100303.19;5091548;28;20028;-34
2021/10/24 07:38:14;;;;;;;1999.90;999.90;;;;;;;11.41;100.00;100312.81;5091605;28;20032;-34
2021/10/24 07:40:42;;;;;;;1999.90;999.90;;;;;;;11.55;100.00;100316.03;5091601;28;20036;-34
2021/10/24 07:43:08;;;;;;;1999.90;999.90;;;;;;;11.57;100.00;100321.97;5092376;28;20021;-34
2021/10/24 07:45:34;;;;;;;1999.90;999.90;;;;;;;11.72;100.00;100316.91;5091514;28;20415;-34
2021/10/24 07:47:59;;;;;;;1999.90;999.90;;;;;;;11.95;100.00;100325.97;5091793;28;20028;-34
2021/10/24 07:50:57;;;;;;;1999.90;999.90;;;;;;;12.16;100.00;100319.13;5090298;28;20111;-33
2021/10/24 07:53:27;;;;;;;1999.90;999.90;;;;;;;12.35;100.00;100316.28;5090966;28;20079;-33
2021/10/24 07:56:25;;;;;;;1999.90;999.90;;;;;;;12.52;100.00;100319.75;5092078;28;20189;-33
2021/10/24 07:59:11;;;;;;;;;;;;;;;12.59;100.00;100325.75;5095709;28;20039;-33
2021/10/24 08:02:07;;;;;;;1999.90;999.90;;;;;;;12.45;100.00;100329.81;5094222;28;19912;-33
2021/10/24 08:04:33;;;;;;;1999.90;999.90;;;;;;;12.34;100.00;100333.34;5095060;28;20028;-34
2021/10/24 08:07:30;;;;;;;1999.90;999.90;;;;;;;12.37;100.00;100339.00;5095105;28;20024;-33
2021/10/24 08:10:28;;;;;;;1999.90;999.90;;;;;;;12.42;100.00;100339.13;5095720;28;20046;-33
2021/10/24 08:12:54;;;;;;;1999.90;999.90;;;;;;;12.22;100.00;100342.22;5094754;28;20089;-34
2021/10/24 08:15:51;;;;;;;1999.90;999.90;;;;;;;12.26;100.00;100347.91;5094866;28;20028;-33
2021/10/24 08:18:47;;;;;;;1999.90;999.90;;;;;;;12.20;100.00;100351.53;5095163;28;20039;-33
2021/10/24 08:21:12;;;;;;;1999.90;999.90;;;;;;;12.21;100.00;100353.16;5095811;28;20035;-34
2021/10/24 08:23:38;;;;;;;1999.90;999.90;;;;;;;12.41;100.00;100356.19;5093525;28;20025;-34
2021/10/24 08:26:04;;;;;;;1999.90;999.90;;;;;;;12.63;100.00;100362.72;5094901;28;20024;-34
2021/10/24 08:28:29;;;;;;;1999.90;999.90;;;;;;;12.77;100.00;100362.19;5094765;28;20446;-34
2021/10/24 08:30:55;;;;;;;1999.90;999.90;;;;;;;12.99;100.00;100363.31;5094568;28;20028;-34
2021/10/24 08:33:21;;;;;;;1999.90;999.90;;;;;;;13.02;100.00;100358.28;5094752;28;20028;-34
2021/10/24 08:35:47;;;;;;;1999.90;999.90;;;;;;;12.86;100.00;100367.94;5094458;28;20505;-34
2021/10/24 08:38:13;;;;;;;1999.90;999.90;;;;;;;12.75;100.00;100384.88;5094447;28;20032;-34
2021/10/24 08:40:41;;;;;;;;;;;;;;;12.54;100.00;100383.69;5095181;28;20445;-34
2021/10/24 08:43:20;;;;;;;1999.90;999.90;;;;;;;12.58;100.00;100392.84;5094641;28;19969;-34
2021/10/24 08:45:47;;;;;;;1999.90;999.90;;;;;;;12.70;100.00;100388.25;5094568;28;20032;-34
2021/10/24 08:48:16;;;;;;;1999.90;999.90;;;;;;;12.74;100.00;100386.75;5094511;28;20024;-34
2021/10/24 08:50:43;;;;;;;1999.90;999.90;;;;;;;12.60;100.00;100393.44;5094430;28;20024;-35
2021/10/24 08:53:13;;;;;;;1999.90;999.90;;;;;;;12.73;100.00;100398.47;5094047;28;20047;-34
2021/10/24 08:55:41;;;;;;;1999.90;999.90;;;;;;;12.85;100.00;100398.41;5094038;28;20067;-34
2021/10/24 08:58:10;;;;;;;1999.90;999.90;;;;;;;12.97;99.75;100400.22;5094068;28;20024;-34
2021/10/24 09:00:38;;;;;;;1999.90;999.90;;;;;;;13.04;97.51;100401.66;5094021;28;20027;-34
2021/10/24 09:03:09;;;;;;;1999.90;999.90;;;;;;;13.22;96.44;100405.16;5094240;28;20024;-34
2021/10/24 09:05:41;;;;;;;1999.90;999.90;;;;;;;13.42;98.21;100408.16;5093877;28;20081;-34
2021/10/24 09:08:12;;;;;;;1999.90;999.90;;;;;;;13.31;94.55;100417.06;5093568;28;20024;-34
2021/10/24 09:10:41;;;;;;;1999.90;999.90;;;;;;;13.42;99.35;100423.41;5094206;28;20411;-34
2021/10/24 09:13:10;;;;;;;1999.90;999.90;;;;;;;13.36;96.69;100419.03;5093653;28;20027;-34
2021/10/24 09:16:05;;;;;;;1999.90;999.90;;;;;;;13.14;94.12;100422.44;5093649;28;20035;-33
2021/10/24 09:18:39;;;;;;;1999.90;999.90;;;;;;;13.17;94.41;100415.75;5093797;28;20032;-34
2021/10/24 09:21:24;;;;;;;1999.90;999.90;;;;;;;13.19;91.28;100421.69;5093937;28;20024;-34
2021/10/24 09:24:10;;;;;;;1999.90;999.90;;;;;;;13.24;92.94;100419.94;5093449;28;20046;-34
2021/10/24 09:26:38;;;;;;;1999.90;999.90;;;;;;;13.41;91.39;100411.91;5093472;28;20106;-34
2021/10/24 09:29:15;;;;;;;1999.90;999.90;;;;;;;13.40;99.01;100420.97;5093552;28;20399;-34
2021/10/24 09:31:43;;;;;;;1999.90;999.90;;;;;;;13.24;87.16;100421.78;5093354;28;20408;-34
2021/10/24 09:34:21;;;;;;;1999.90;999.90;;;;;;;13.21;89.28;100414.22;5093619;28;20028;-33
2021/10/24 09:36:55;;;;;;;1999.90;999.90;;;;;;;13.28;86.22;100418.34;5093257;28;20024;-34
2021/10/24 09:39:29;;;;;;;1999.90;999.90;;;;;;;13.07;90.10;100422.59;5093296;28;20473;-34
2021/10/24 09:42:11;;;;;;;1999.90;999.90;;;;;;;13.41;85.23;100425.28;5093263;28;20031;-34
2021/10/24 09:44:36;;;;;;;1999.90;999.90;;;;;;;13.37;86.41;100434.06;5093202;28;20043;-34
2021/10/24 09:47:02;;;;;;;1999.90;999.90;;;;;;;13.44;87.22;100438.19;5093038;28;20021;-34
2021/10/24 09:49:28;;;;;;;1999.90;999.90;;;;;;;13.65;87.97;100419.72;5093131;28;20038;-34
2021/10/24 09:51:54;;;;;;;1999.90;999.90;;;;;;;13.63;77.48;100427.22;5093020;28;20028;-34
2021/10/24 09:54:24;;;;;;;1999.90;999.90;;;;;;;13.83;75.40;100424.00;5092842;28;20438;-34
2021/10/24 09:56:53;;;;;;;1999.90;999.90;;;;;;;13.93;71.07;100418.78;5092868;28;20039;-34
2021/10/24 09:59:21;;;;;;;1999.90;999.90;;;;;;;13.79;64.90;100418.31;5092918;28;20028;-34
2021/10/24 10:01:54;;;;;;;1999.90;999.90;;;;;;;13.75;64.53;100425.22;5092869;28;20039;-34
2021/10/24 10:04:24;;;;;;;1999.90;999.90;;;;;;;13.25;67.70;100429.56;5092858;28;20024;-34
2021/10/24 10:06:50;;;;;;;1999.90;999.90;;;;;;;13.36;62.79;100430.56;5091822;28;20454;-34
2021/10/24 10:09:16;;;;;;;;;;;;;;;13.25;60.87;100432.22;5093115;28;20037;-34
2021/10/24 10:11:53;;;;;;;1999.90;999.90;;;;;;;13.05;62.55;100435.41;5092632;28;19958;-34
2021/10/24 10:14:28;;;;;;;1999.90;999.90;;;;;;;13.13;65.21;100440.34;5092645;28;20510;-34
2021/10/24 10:17:04;;;;;;;1999.90;999.90;;;;;;;12.84;63.35;100433.41;5092456;28;20024;-34
2021/10/24 10:19:33;;;;;;;1999.90;999.90;;;;;;;13.09;66.82;100433.84;5092336;28;20028;-34
2021/10/24 10:22:21;;;;;;;1999.90;999.90;;;;;;;12.71;67.39;100429.97;5092772;28;20032;-34
2021/10/24 10:25:02;;;;;;;1999.90;999.90;;;;;;;12.16;70.09;100425.22;5092344;28;20024;-34
2021/10/24 10:27:28;;;;;;;1999.90;999.90;;;;;;;12.02;74.30;100424.63;5092343;28;20024;-34
2021/10/24 10:30:14;;;;;;;1999.90;999.90;;;;;;;11.97;74.64;100425.34;5092643;28;20023;-33
2021/10/24 10:32:47;;;;;;;1999.90;999.90;;;;;;;12.07;77.12;100425.56;5092557;28;20115;-34
2021/10/24 10:35:16;;;;;;;1999.90;999.90;;;;;;;12.40;77.82;100428.59;5092235;28;20119;-34
2021/10/24 10:37:50;;;;;;;1999.90;999.90;;;;;;;12.57;76.65;100426.00;5092190;28;20107;-34
2021/10/24 10:41:05;;;;;;;1999.90;999.90;;;;;;;12.84;72.52;100428.06;5092196;28;20152;-33
2021/10/24 10:43:33;;;;;;;1999.90;999.90;;;;;;;12.65;69.51;100435.50;5091852;28;20036;-34
2021/10/24 10:46:01;;;;;;;1999.90;999.90;;;;;;;12.51;69.84;100432.28;5092515;28;20046;-34
2021/10/24 10:48:30;;;;;;;1999.90;999.90;;;;;;;12.53;72.32;100430.19;5092010;28;20020;-34
2021/10/24 10:51:38;;;;;;;1999.90;999.90;;;;;;;12.56;76.59;100438.53;5091990;28;20457;-33
2021/10/24 10:54:47;;;;;;;1999.90;999.90;;;;;;;12.33;71.70;100447.47;5089330;28;20079;-33
2021/10/24 10:57:59;;;;;;;1999.90;999.90;;;;;;;12.14;76.06;100441.47;5091771;28;20036;-33